createdAt,value
2019-04-10T00:01:09.320Z,9.50
2019-04-10T00:03:41.758Z,9.40
2019-04-10T00:06:08.775Z,9.40
2019-04-10T00:08:38.583Z,9.30
2019-04-10T00:11:08.177Z,9.30
2019-04-10T00:13:36.994Z,9.30
2019-04-10T00:16:05.658Z,9.20
2019-04-10T00:18:35.548Z,9.20
2019-04-10T00:21:05.040Z,9.10
2019-04-10T00:23:33.968Z,9.10
2019-04-10T00:26:03.639Z,9.10
2019-04-10T00:28:32.175Z,9.10
2019-04-10T00:31:01.836Z,9.00
2019-04-10T00:33:30.850Z,9.00
2019-04-10T00:35:59.594Z,9.00
2019-04-10T00:38:28.144Z,9.00
2019-04-10T00:40:57.466Z,8.90
2019-04-10T00:43:26.708Z,8.80
2019-04-10T00:45:55.391Z,8.80
2019-04-10T00:48:24.047Z,8.80
2019-04-10T00:50:52.924Z,8.80
2019-04-10T00:53:21.831Z,8.70
2019-04-10T00:55:50.375Z,8.60
2019-04-10T00:58:18.884Z,8.60
2019-04-10T01:00:47.709Z,8.60
2019-04-10T01:03:34.019Z,8.60
2019-04-10T01:06:02.488Z,8.50
2019-04-10T01:08:32.789Z,8.50
2019-04-10T01:11:01.362Z,8.40
2019-04-10T01:13:29.807Z,8.40
2019-04-10T01:15:58.634Z,8.40
2019-04-10T01:18:27.127Z,8.40
2019-04-10T01:20:55.752Z,8.30
2019-04-10T01:23:24.666Z,8.30
2019-04-10T01:25:53.426Z,8.30
2019-04-10T01:28:22.718Z,8.20
2019-04-10T01:30:56.925Z,8.20
2019-04-10T01:33:25.679Z,8.20
2019-04-10T01:35:54.407Z,8.20
2019-04-10T01:38:23.155Z,8.20
2019-04-10T01:40:51.607Z,8.20
2019-04-10T01:43:20.116Z,8.10
2019-04-10T01:45:49.514Z,8.00
2019-04-10T01:48:18.111Z,8.00
2019-04-10T01:50:46.571Z,8.00
2019-04-10T01:53:15.043Z,7.90
2019-04-10T01:55:43.600Z,7.90
2019-04-10T01:58:13.803Z,7.90
2019-04-10T02:00:44.023Z,7.90
2019-04-10T02:03:12.472Z,7.80
2019-04-10T02:05:40.992Z,7.80
2019-04-10T02:08:12.875Z,7.80
2019-04-10T02:10:40.565Z,7.80
2019-04-10T02:13:09.418Z,7.70
2019-04-10T02:15:38.471Z,7.70
2019-04-10T02:18:07.047Z,7.60
2019-04-10T02:20:35.543Z,7.70
2019-04-10T02:23:04.284Z,7.60
2019-04-10T02:25:32.770Z,7.60
2019-04-10T02:28:01.280Z,7.50
2019-04-10T02:30:30.270Z,7.60
2019-04-10T02:32:59.798Z,7.50
2019-04-10T02:35:29.755Z,7.50
2019-04-10T02:38:11.376Z,7.50
2019-04-10T02:40:28.970Z,7.50
2019-04-10T02:42:59.044Z,7.40
2019-04-10T02:45:28.040Z,7.40
2019-04-10T02:47:56.853Z,7.40
2019-04-10T02:50:25.818Z,7.30
2019-04-10T02:52:57.127Z,7.30
2019-04-10T02:55:27.236Z,7.30
2019-04-10T02:57:56.428Z,7.20
2019-04-10T03:00:26.677Z,7.20
2019-04-10T03:02:57.176Z,7.20
2019-04-10T03:05:27.355Z,7.20
2019-04-10T03:07:58.065Z,7.20
2019-04-10T03:10:36.941Z,7.10
2019-04-10T03:12:58.570Z,7.10
2019-04-10T03:15:27.447Z,7.00
2019-04-10T03:17:56.620Z,7.10
2019-04-10T03:20:26.544Z,7.10
2019-04-10T03:22:55.349Z,7.00
2019-04-10T03:25:24.649Z,7.10
2019-04-10T03:27:54.390Z,7.00
2019-04-10T03:30:23.732Z,7.00
2019-04-10T03:33:14.174Z,7.00
2019-04-10T03:35:43.083Z,7.00
2019-04-10T03:38:11.978Z,6.90
2019-04-10T03:40:41.536Z,6.90
2019-04-10T03:43:10.267Z,6.90
2019-04-10T03:45:39.055Z,6.90
2019-04-10T03:48:08.434Z,6.80
2019-04-10T03:50:37.032Z,6.80
2019-04-10T03:53:05.565Z,6.80
2019-04-10T03:55:35.013Z,6.70
2019-04-10T03:58:03.635Z,6.70
2019-04-10T04:00:32.187Z,6.70
2019-04-10T04:03:00.731Z,6.70
2019-04-10T04:05:29.247Z,6.60
2019-04-10T04:07:57.699Z,6.60
2019-04-10T04:10:28.806Z,6.60
2019-04-10T04:13:01.477Z,6.60
2019-04-10T04:15:33.426Z,6.60
2019-04-10T04:18:06.268Z,6.60
2019-04-10T04:20:37.129Z,6.60
2019-04-10T04:23:09.587Z,6.50
2019-04-10T04:25:40.785Z,6.50
2019-04-10T04:28:11.365Z,6.50
2019-04-10T04:30:46.220Z,6.50
2019-04-10T04:33:17.722Z,6.50
2019-04-10T04:35:49.434Z,6.40
2019-04-10T04:38:21.056Z,6.40
2019-04-10T04:40:52.823Z,6.40
2019-04-10T04:43:25.370Z,6.40
2019-04-10T04:45:56.644Z,6.20
2019-04-10T04:48:28.424Z,6.20
2019-04-10T04:50:59.716Z,6.20
2019-04-10T04:53:32.874Z,6.20
2019-04-10T04:56:02.094Z,6.20
2019-04-10T04:58:33.717Z,6.10
2019-04-10T05:01:06.300Z,6.20
2019-04-10T05:03:37.639Z,6.20
2019-04-10T05:06:08.981Z,6.20
2019-04-10T05:08:40.734Z,6.30
2019-04-10T05:11:11.914Z,6.20
2019-04-10T05:13:55.980Z,6.20
2019-04-10T05:16:27.482Z,6.00
2019-04-10T05:18:59.555Z,6.00
2019-04-10T05:21:31.121Z,6.00
2019-04-10T05:24:03.264Z,6.00
2019-04-10T05:26:34.952Z,6.00
2019-04-10T05:29:05.528Z,5.90
2019-04-10T05:31:36.355Z,5.80
2019-04-10T05:34:07.820Z,5.80
2019-04-10T05:36:38.036Z,5.80
2019-04-10T05:39:09.186Z,5.90
2019-04-10T05:41:39.933Z,6.00
2019-04-10T05:44:11.592Z,5.90
2019-04-10T05:46:43.498Z,6.00
2019-04-10T05:49:15.497Z,5.90
2019-04-10T05:51:47.918Z,6.00
2019-04-10T05:54:19.231Z,6.10
2019-04-10T05:56:52.572Z,6.10
2019-04-10T05:59:34.429Z,6.10
2019-04-10T06:02:05.128Z,6.20
2019-04-10T06:04:37.895Z,6.20
2019-04-10T06:07:10.640Z,6.30
2019-04-10T06:09:52.032Z,6.30
2019-04-10T06:12:20.233Z,6.50
2019-04-10T06:14:52.811Z,6.70
2019-04-10T06:17:24.670Z,6.70
2019-04-10T06:19:55.094Z,6.90
2019-04-10T06:22:24.827Z,7.00
2019-04-10T06:24:56.536Z,7.00
2019-04-10T06:27:28.319Z,7.10
2019-04-10T06:30:00.233Z,7.50
2019-04-10T06:32:31.961Z,7.60
2019-04-10T06:35:06.306Z,7.60
2019-04-10T06:37:38.458Z,7.50
2019-04-10T06:40:17.100Z,7.80
2019-04-10T06:42:47.983Z,7.90
2019-04-10T06:45:15.694Z,8.00
2019-04-10T06:47:47.415Z,8.30
2019-04-10T06:50:19.285Z,8.60
2019-04-10T06:52:53.205Z,8.50
2019-04-10T06:55:25.047Z,8.20
2019-04-10T06:57:58.199Z,8.20
2019-04-10T07:00:30.648Z,8.20
2019-04-10T07:03:02.981Z,8.20
2019-04-10T07:05:42.190Z,8.50
2019-04-10T07:08:15.466Z,8.80
2019-04-10T07:10:49.912Z,9.00
2019-04-10T07:13:15.460Z,9.00
2019-04-10T07:15:45.844Z,9.20
2019-04-10T07:18:20.236Z,9.50
2019-04-10T07:20:51.060Z,9.70
2019-04-10T07:23:26.896Z,9.60
2019-04-10T07:25:56.407Z,9.20
2019-04-10T07:28:28.377Z,9.20
2019-04-10T07:31:04.595Z,9.20
2019-04-10T07:33:32.929Z,9.50
2019-04-10T07:36:08.542Z,9.70
2019-04-10T07:38:37.100Z,9.80
2019-04-10T07:41:15.371Z,10.10
2019-04-10T07:43:40.698Z,9.90
2019-04-10T07:46:11.737Z,10.00
2019-04-10T07:48:41.569Z,10.30
2019-04-10T07:51:13.518Z,10.00
2019-04-10T07:53:44.113Z,9.60
2019-04-10T07:56:20.361Z,9.60
2019-04-10T07:58:48.185Z,9.80
2019-04-10T08:01:22.029Z,9.90
2019-04-10T08:03:54.005Z,10.10
2019-04-10T08:06:44.711Z,10.50
2019-04-10T08:09:15.211Z,10.60
2019-04-10T08:11:47.110Z,10.30
2019-04-10T08:14:16.901Z,9.90
2019-04-10T08:16:48.207Z,9.80
2019-04-10T08:19:19.497Z,9.80
2019-04-10T08:21:52.708Z,10.40
2019-04-10T08:24:24.561Z,10.90
2019-04-10T08:26:54.897Z,10.90
2019-04-10T08:29:26.376Z,10.70
2019-04-10T08:31:56.153Z,10.50
2019-04-10T08:34:31.376Z,11.20
2019-04-10T08:37:02.031Z,11.80
2019-04-10T08:39:40.151Z,12.50
2019-04-10T08:42:04.355Z,13.20
2019-04-10T08:44:36.110Z,13.40
2019-04-10T08:47:07.134Z,13.70
2019-04-10T08:49:39.018Z,14.00
2019-04-10T08:52:10.371Z,14.10
2019-04-10T08:54:40.969Z,14.10
2019-04-10T08:57:12.122Z,14.40
2019-04-10T08:59:44.486Z,14.40
2019-04-10T09:02:16.118Z,14.10
2019-04-10T09:04:46.874Z,13.70
2019-04-10T09:07:16.136Z,14.10
2019-04-10T09:09:46.597Z,14.30
2019-04-10T09:12:21.967Z,14.60
2019-04-10T09:14:54.388Z,14.70
2019-04-10T09:17:25.713Z,14.40
2019-04-10T09:20:00.455Z,14.60
2019-04-10T09:22:48.898Z,14.60
2019-04-10T09:25:04.806Z,14.80
2019-04-10T09:27:36.111Z,14.90
2019-04-10T09:30:08.853Z,15.00
2019-04-10T09:32:39.036Z,15.00
2019-04-10T09:35:10.425Z,15.10
2019-04-10T09:37:40.271Z,15.20
2019-04-10T09:40:11.986Z,15.40
2019-04-10T09:42:43.862Z,15.30
2019-04-10T09:45:15.600Z,15.40
2019-04-10T09:47:47.968Z,15.50
2019-04-10T09:50:19.638Z,16.10
2019-04-10T09:52:52.364Z,16.20
2019-04-10T09:55:22.872Z,16.20
2019-04-10T09:57:53.954Z,16.00
2019-04-10T10:00:26.098Z,16.20
2019-04-10T10:02:59.231Z,16.30
2019-04-10T10:05:30.777Z,16.50
2019-04-10T10:08:04.248Z,17.10
2019-04-10T10:10:36.814Z,16.90
2019-04-10T10:13:09.513Z,17.20
2019-04-10T10:15:41.129Z,17.30
2019-04-10T10:18:12.942Z,17.40
2019-04-10T10:20:45.964Z,17.50
2019-04-10T10:23:16.346Z,17.40
2019-04-10T10:25:47.790Z,17.80
2019-04-10T10:28:18.770Z,18.00
2019-04-10T10:30:49.849Z,18.20
2019-04-10T10:33:21.576Z,18.30
2019-04-10T10:35:53.571Z,18.50
2019-04-10T10:38:25.175Z,18.30
2019-04-10T10:40:57.036Z,17.80
2019-04-10T10:43:32.549Z,18.20
2019-04-10T10:46:03.060Z,18.10
2019-04-10T10:48:33.864Z,18.20
2019-04-10T10:51:04.775Z,18.30
2019-04-10T10:53:36.480Z,18.40
2019-04-10T10:56:07.259Z,18.30
2019-04-10T10:58:58.977Z,18.50
2019-04-10T11:01:29.575Z,18.00
2019-04-10T11:03:59.529Z,18.20
2019-04-10T11:06:31.011Z,18.50
2019-04-10T11:09:04.072Z,18.60
2019-04-10T11:11:34.740Z,19.00
2019-04-10T11:14:07.326Z,19.30
2019-04-10T11:16:39.139Z,19.60
2019-04-10T11:19:10.731Z,19.30
2019-04-10T11:21:42.862Z,18.80
2019-04-10T11:24:14.942Z,19.00
2019-04-10T11:26:46.443Z,19.00
2019-04-10T11:29:17.559Z,19.50
2019-04-10T11:31:47.118Z,19.90
2019-04-10T11:34:18.927Z,20.00
2019-04-10T11:37:11.297Z,20.00
2019-04-10T11:39:43.527Z,19.50
2019-04-10T11:42:12.139Z,19.90
2019-04-10T11:44:45.639Z,19.70
2019-04-10T11:47:17.344Z,20.00
2019-04-10T11:49:49.713Z,19.70
2019-04-10T11:55:00.487Z,20.10
2019-04-10T11:57:30.185Z,19.70
2019-04-10T12:00:00.615Z,20.00
2019-04-10T12:02:30.006Z,20.10
2019-04-10T12:05:08.612Z,19.90
2019-04-10T12:08:10.949Z,19.90
2019-04-10T12:12:42.349Z,19.40
2019-04-10T12:15:14.235Z,19.50
2019-04-10T12:17:46.514Z,19.60
2019-04-10T12:20:18.729Z,19.50
2019-04-10T12:22:48.880Z,19.70
2019-04-10T12:25:20.844Z,19.70
2019-04-10T12:27:51.980Z,19.90
2019-04-10T12:30:23.631Z,19.80
2019-04-10T12:32:54.802Z,19.90
2019-04-10T12:35:25.380Z,19.90
2019-04-10T12:38:02.444Z,20.30
2019-04-10T12:40:30.736Z,20.40
2019-04-10T12:43:02.947Z,20.20
2019-04-10T12:45:34.650Z,19.90
2019-04-10T12:48:06.634Z,19.70
2019-04-10T12:50:37.074Z,19.40
2019-04-10T12:53:09.398Z,19.20
2019-04-10T12:55:38.865Z,19.40
2019-04-10T12:58:12.733Z,19.60
2019-04-10T13:00:40.993Z,20.10
2019-04-10T13:03:12.385Z,20.00
2019-04-10T13:05:41.319Z,19.80
2019-04-10T13:08:17.815Z,19.30
2019-04-10T13:10:45.470Z,19.50
2019-04-10T13:13:17.880Z,19.60
2019-04-10T13:15:49.788Z,19.70
2019-04-10T13:18:20.620Z,19.80
2019-04-10T13:20:52.096Z,19.80
2019-04-10T13:23:24.652Z,19.50
2019-04-10T13:26:00.956Z,19.20
2019-04-10T13:28:27.649Z,19.30
2019-04-10T13:30:58.498Z,19.40
2019-04-10T13:33:30.917Z,19.50
2019-04-10T13:36:03.127Z,19.60
2019-04-10T13:38:35.196Z,19.70
2019-04-10T13:41:06.454Z,19.50
2019-04-10T13:43:35.998Z,19.20
2019-04-10T13:46:07.080Z,18.90
2019-04-10T13:48:37.516Z,18.80
2019-04-10T13:51:09.444Z,18.70
2019-04-10T13:53:41.826Z,18.80
2019-04-10T13:56:14.870Z,18.80
2019-04-10T13:58:46.763Z,18.80
2019-04-10T14:01:28.806Z,18.20
2019-04-10T14:03:58.990Z,18.40
2019-04-10T14:06:31.782Z,18.40
2019-04-10T14:09:17.520Z,18.40
2019-04-10T14:11:39.476Z,18.50
2019-04-10T14:14:10.980Z,18.70
2019-04-10T14:16:42.832Z,18.60
2019-04-10T14:19:15.793Z,18.50
2019-04-10T14:21:46.821Z,18.30
2019-04-10T14:24:18.350Z,18.00
2019-04-10T14:26:58.029Z,18.00
2019-04-10T14:29:30.516Z,18.00
2019-04-10T14:32:03.497Z,18.10
2019-04-10T14:34:34.746Z,17.90
2019-04-10T14:37:07.585Z,17.90
2019-04-10T14:39:38.362Z,17.90
2019-04-10T14:42:10.598Z,17.80
2019-04-10T14:44:42.015Z,17.80
2019-04-10T14:47:14.985Z,17.60
2019-04-10T14:49:46.140Z,17.90
2019-04-10T14:52:16.947Z,17.60
2019-04-10T14:54:48.264Z,17.60
2019-04-10T14:57:20.969Z,17.50
2019-04-10T14:59:52.529Z,17.60
2019-04-10T15:02:24.714Z,17.50
2019-04-10T15:04:55.560Z,17.50
2019-04-10T15:07:26.875Z,17.30
2019-04-10T15:09:57.228Z,17.10
2019-04-10T15:12:28.160Z,16.90
2019-04-10T15:14:59.632Z,16.80
2019-04-10T15:17:28.945Z,17.00
2019-04-10T15:20:00.682Z,16.80
2019-04-10T15:22:33.652Z,16.50
2019-04-10T15:25:06.910Z,16.60
2019-04-10T15:27:37.632Z,16.50
2019-04-10T15:30:10.754Z,16.70
2019-04-10T15:32:40.755Z,16.80
2019-04-10T15:35:12.495Z,16.80
2019-04-10T15:37:47.303Z,16.40
2019-04-10T15:40:23.422Z,16.30
2019-04-10T15:42:48.754Z,16.00
2019-04-10T15:45:19.658Z,15.80
2019-04-10T15:47:54.567Z,15.70
2019-04-10T15:50:24.295Z,15.50
2019-04-10T15:52:57.817Z,15.60
2019-04-10T15:55:29.947Z,15.60
2019-04-10T15:58:02.384Z,15.50
2019-04-10T16:00:33.238Z,15.40
2019-04-10T16:03:04.998Z,15.40
2019-04-10T16:05:38.385Z,15.50
2019-04-10T16:08:12.070Z,15.40
2019-04-10T16:10:46.333Z,15.30
2019-04-10T16:13:22.179Z,15.20
2019-04-10T16:15:54.767Z,15.10
2019-04-10T16:18:30.589Z,15.10
2019-04-10T16:21:02.100Z,15.00
2019-04-10T16:23:35.619Z,15.10
2019-04-10T16:26:09.417Z,15.10
2019-04-10T16:28:39.712Z,14.90
2019-04-10T16:31:10.998Z,14.80
2019-04-10T16:33:43.317Z,14.70
2019-04-10T16:36:14.590Z,14.60
2019-04-10T16:38:47.061Z,14.60
2019-04-10T16:41:19.472Z,14.60
2019-04-10T16:43:50.964Z,14.50
2019-04-10T16:46:23.796Z,14.40
2019-04-10T16:48:53.963Z,14.40
2019-04-10T16:51:25.984Z,14.20
2019-04-10T16:53:57.450Z,14.20
2019-04-10T16:56:29.678Z,14.20
2019-04-10T16:59:00.569Z,14.10
2019-04-10T17:01:33.007Z,13.90
2019-04-10T17:04:02.892Z,13.80
2019-04-10T17:06:34.482Z,13.80
2019-04-10T17:09:06.582Z,13.80
2019-04-10T17:11:43.132Z,13.70
2019-04-10T17:14:17.498Z,13.60
2019-04-10T17:16:50.040Z,13.60
2019-04-10T17:19:21.589Z,13.50
2019-04-10T17:21:52.381Z,13.50
2019-04-10T17:24:25.064Z,13.40
2019-04-10T17:26:57.299Z,13.30
2019-04-10T17:29:31.261Z,13.20
2019-04-10T17:32:02.704Z,13.10
2019-04-10T17:34:34.740Z,13.00
2019-04-10T17:37:25.644Z,13.00
2019-04-10T17:40:00.071Z,12.80
2019-04-10T17:42:32.371Z,12.80
2019-04-10T17:45:04.446Z,12.70
2019-04-10T17:47:36.891Z,12.60
2019-04-10T17:50:09.850Z,12.70
2019-04-10T17:52:40.707Z,12.60
2019-04-10T17:55:13.500Z,12.50
2019-04-10T17:57:46.374Z,12.40
2019-04-10T18:00:22.991Z,12.20
2019-04-10T18:02:57.250Z,12.30
2019-04-10T18:05:28.935Z,12.30
2019-04-10T18:08:00.873Z,12.40
2019-04-10T18:10:43.598Z,12.30
2019-04-10T18:13:05.525Z,12.30
2019-04-10T18:15:36.386Z,12.20
2019-04-10T18:18:08.562Z,12.20
2019-04-10T18:20:42.691Z,12.10
2019-04-10T18:23:15.532Z,12.00
2019-04-10T18:25:46.404Z,12.00
2019-04-10T18:28:19.210Z,12.00
2019-04-10T18:30:49.976Z,12.00
2019-04-10T18:33:21.048Z,11.90
2019-04-10T18:35:53.263Z,11.90
2019-04-10T18:38:23.717Z,11.80
2019-04-10T18:41:02.311Z,11.80
2019-04-10T18:43:29.954Z,11.70
2019-04-10T18:46:09.195Z,11.90
2019-04-10T18:48:35.617Z,11.70
2019-04-10T18:51:09.494Z,11.60
2019-04-10T18:53:42.364Z,11.40
2019-04-10T18:56:14.479Z,11.40
2019-04-10T18:58:47.919Z,11.50
2019-04-10T19:01:37.101Z,11.40
2019-04-10T19:04:25.806Z,11.30
2019-04-10T19:07:01.871Z,11.20
2019-04-10T19:09:34.885Z,11.20
2019-04-10T19:12:06.729Z,11.10
2019-04-10T19:14:38.669Z,11.00
2019-04-10T19:17:10.991Z,10.90
2019-04-10T19:19:43.914Z,10.90
2019-04-10T19:22:16.397Z,10.70
2019-04-10T19:24:50.209Z,10.70
2019-04-10T19:27:22.173Z,10.70
2019-04-10T19:29:51.375Z,10.60
2019-04-10T19:32:26.684Z,10.50
2019-04-10T19:35:00.612Z,10.50
2019-04-10T19:37:32.453Z,10.50
2019-04-10T19:40:02.869Z,10.50
2019-04-10T19:42:35.638Z,10.40
2019-04-10T19:45:08.414Z,10.40
2019-04-10T19:47:39.883Z,10.40
2019-04-10T19:50:13.052Z,10.30
2019-04-10T19:52:42.689Z,10.30
2019-04-10T19:55:15.609Z,10.20
2019-04-10T19:57:46.021Z,10.30
2019-04-10T20:00:19.942Z,10.20
2019-04-10T20:02:51.769Z,10.10
2019-04-10T20:05:25.327Z,10.10
2019-04-10T20:07:56.184Z,10.10
2019-04-10T20:10:27.688Z,10.00
2019-04-10T20:12:59.403Z,10.10
2019-04-10T20:15:30.849Z,10.00
2019-04-10T20:18:02.268Z,10.00
2019-04-10T20:20:32.812Z,9.90
2019-04-10T20:23:04.650Z,9.90
2019-04-10T20:25:36.806Z,9.90
2019-04-10T20:28:08.908Z,9.70
2019-04-10T20:30:41.090Z,9.70
2019-04-10T20:33:12.642Z,9.60
2019-04-10T20:35:44.667Z,9.50
2019-04-10T20:38:17.618Z,9.50
2019-04-10T20:40:49.844Z,9.60
2019-04-10T20:43:21.050Z,9.50
2019-04-10T20:45:53.706Z,9.40
2019-04-10T20:48:28.654Z,9.40
2019-04-10T20:51:00.599Z,9.50
2019-04-10T20:53:30.187Z,9.40
2019-04-10T20:56:01.952Z,9.40
2019-04-10T20:58:52.702Z,9.30
2019-04-10T21:01:22.376Z,9.30
2019-04-10T21:03:51.072Z,9.30
2019-04-10T21:06:19.544Z,9.10
2019-04-10T21:08:48.368Z,9.10
2019-04-10T21:11:16.823Z,9.00
2019-04-10T21:13:45.302Z,8.90
2019-04-10T21:16:13.762Z,9.10
2019-04-10T21:18:42.238Z,8.90
2019-04-10T21:21:10.712Z,8.90
2019-04-10T21:23:40.000Z,8.80
2019-04-10T21:26:08.607Z,8.70
2019-04-10T21:28:37.194Z,8.70
2019-04-10T21:31:23.859Z,8.60
2019-04-10T21:34:10.917Z,8.60
2019-04-10T21:36:41.375Z,8.60
2019-04-10T21:39:11.044Z,8.60
2019-04-10T21:41:41.135Z,8.60
2019-04-10T21:44:10.284Z,8.60
2019-04-10T21:46:40.750Z,8.50
2019-04-10T21:49:09.499Z,8.40
2019-04-10T21:51:38.228Z,8.20
2019-04-10T21:54:06.790Z,8.10
2019-04-10T21:56:35.255Z,8.20
2019-04-10T21:59:03.961Z,8.20
2019-04-10T22:01:32.575Z,8.30
2019-04-10T22:04:21.060Z,8.20
2019-04-10T22:07:07.700Z,8.20
2019-04-10T22:09:50.808Z,8.10
2019-04-10T22:12:29.804Z,7.90
2019-04-10T22:14:51.152Z,7.90
2019-04-10T22:17:19.683Z,7.80
2019-04-10T22:19:48.147Z,7.80
2019-04-10T22:22:16.590Z,7.90
2019-04-10T22:24:46.240Z,7.80
2019-04-10T22:27:15.068Z,7.70
2019-04-10T22:29:44.731Z,7.70
2019-04-10T22:32:14.126Z,7.70
2019-04-10T22:34:42.732Z,7.60
2019-04-10T22:37:12.054Z,7.60
2019-04-10T22:39:41.736Z,7.60
2019-04-10T22:42:10.846Z,7.40
2019-04-10T22:44:43.839Z,7.50
2019-04-10T22:47:09.531Z,7.50
2019-04-10T22:49:39.205Z,7.40
2019-04-10T22:52:08.770Z,7.30
2019-04-10T22:54:38.598Z,7.30
2019-04-10T22:57:07.716Z,7.30
2019-04-10T22:59:36.293Z,7.30
2019-04-10T23:02:10.820Z,7.30
2019-04-10T23:04:34.996Z,7.30
2019-04-10T23:07:03.980Z,7.20
2019-04-10T23:09:32.715Z,7.20
2019-04-10T23:12:02.251Z,7.10
2019-04-10T23:14:31.211Z,7.10
2019-04-10T23:17:00.203Z,7.10
2019-04-10T23:19:29.948Z,7.10
2019-04-10T23:21:58.801Z,7.00
2019-04-10T23:24:27.715Z,7.00
2019-04-10T23:26:57.573Z,7.00
2019-04-10T23:29:26.476Z,6.90
2019-04-10T23:31:56.140Z,6.90
2019-04-10T23:34:25.090Z,6.90
2019-04-10T23:36:54.078Z,6.90
2019-04-10T23:39:23.898Z,6.90
2019-04-10T23:41:52.737Z,6.90
2019-04-10T23:44:21.319Z,6.80
2019-04-10T23:46:49.932Z,6.80
2019-04-10T23:49:19.438Z,6.80
2019-04-10T23:51:48.101Z,6.70
2019-04-10T23:54:17.267Z,6.60
2019-04-10T23:56:49.096Z,6.50
2019-04-10T23:59:15.979Z,6.40
